Time;durP1;ratioP1;P1;durP2;ratioP2;P2;SDS_P1;SDS_P2;PMS_P1;PMS_P2;Temp;Humidity;BMP_temperature;BMP_pressure;BME280_temperature;BME280_humidity;BME280_pressure;Samples;Min_cycle;Max_cycle;Signal;HPM_P1;HPM_P2
2023/05/12 00:00:58;;;;;;;6.17;5.67;;;11.50;99.90;;;;;;4999954;28;20225;-72
2023/05/12 00:03:24;;;;;;;6.50;6.00;;;11.50;99.90;;;;;;5000825;28;20183;-74
2023/05/12 00:05:50;;;;;;;8.53;6.47;;;11.60;99.90;;;;;;4999198;28;20287;-74
2023/05/12 00:08:16;;;;;;;7.17;6.47;;;11.60;99.90;;;;;;5002613;28;20299;-74
2023/05/12 00:10:42;;;;;;;7.10;6.40;;;11.60;99.90;;;;;;4992296;28;20454;-74
2023/05/12 00:13:08;;;;;;;6.13;5.40;;;11.50;99.90;;;;;;4990823;28;20202;-74
2023/05/12 00:15:36;;;;;;;8.53;6.90;;;11.50;99.90;;;;;;4989961;28;20191;-74
2023/05/12 00:18:01;;;;;;;9.83;5.97;;;11.50;99.90;;;;;;4990697;28;20487;-74
2023/05/12 00:20:27;;;;;;;7.77;5.87;;;11.50;99.90;;;;;;4994345;28;20434;-73
2023/05/12 00:22:52;;;;;;;8.03;6.93;;;11.50;99.90;;;;;;4989143;28;20191;-74
2023/05/12 00:25:18;;;;;;;7.17;6.43;;;11.50;99.90;;;;;;4990949;28;20207;-75
2023/05/12 00:27:43;;;;;;;7.13;6.43;;;11.50;99.90;;;;;;4974510;28;20179;-73
2023/05/12 00:30:10;;;;;;;6.40;5.80;;;11.60;99.90;;;;;;4992833;28;20249;-75
2023/05/12 00:32:36;;;;;;;9.90;6.70;;;11.50;99.90;;;;;;4988746;28;20262;-75
2023/05/12 00:35:01;;;;;;;9.93;7.30;;;11.60;99.90;;;;;;4999257;28;20494;-75
2023/05/12 00:37:27;;;;;;;11.77;8.50;;;11.50;99.90;;;;;;4998243;28;20195;-74
2023/05/12 00:39:52;;;;;;;8.50;7.70;;;11.50;99.90;;;;;;4998391;28;20215;-75
2023/05/12 00:42:18;;;;;;;8.67;7.97;;;11.50;99.90;;;;;;4991387;28;20282;-75
2023/05/12 00:44:44;;;;;;;13.33;8.07;;;11.50;99.90;;;;;;4991345;28;20683;-73
2023/05/12 00:47:09;;;;;;;9.53;8.33;;;11.50;99.90;;;;;;4998932;28;20198;-74
2023/05/12 00:49:35;;;;;;;8.67;7.87;;;11.50;99.90;;;;;;5002378;28;20190;-74
2023/05/12 00:52:01;;;;;;;9.07;8.23;;;11.50;99.90;;;;;;4989570;28;20566;-73
2023/05/12 00:54:28;;;;;;;10.40;9.40;;;11.50;99.90;;;;;;4994223;28;20426;-74
2023/05/12 00:56:54;;;;;;;9.70;8.30;;;11.50;99.90;;;;;;4993911;28;20450;-74
2023/05/12 00:59:19;;;;;;;11.17;8.70;;;11.60;99.90;;;;;;4989393;28;20829;-72
2023/05/12 02:31:00;;;;;;;14.77;13.27;;;11.20;99.90;;;;;;5774869;23;20505;-73
2023/05/12 02:33:25;;;;;;;16.53;12.53;;;11.20;99.90;;;;;;5002013;28;20449;-76
2023/05/12 02:35:51;;;;;;;15.27;12.87;;;11.20;99.90;;;;;;5008796;28;20190;-76
2023/05/12 02:38:16;;;;;;;15.07;12.73;;;11.20;99.90;;;;;;5007646;28;20221;-76
2023/05/12 02:40:42;;;;;;;14.60;11.83;;;11.10;99.90;;;;;;5008501;28;20219;-72
2023/05/12 02:43:07;;;;;;;16.10;12.70;;;11.10;99.90;;;;;;5006544;28;20218;-76
2023/05/12 02:45:33;;;;;;;16.43;12.63;;;11.10;99.90;;;;;;4998206;28;20241;-74
2023/05/12 02:47:59;;;;;;;16.40;13.87;;;11.10;99.90;;;;;;4997670;28;20650;-76
2023/05/12 02:50:24;;;;;;;19.40;13.63;;;11.10;99.90;;;;;;4997454;28;20242;-75
2023/05/12 02:52:50;;;;;;;16.17;14.27;;;11.10;99.90;;;;;;5003696;28;20191;-75
2023/05/12 02:55:16;;;;;;;18.93;13.40;;;11.00;99.90;;;;;;4993215;28;20191;-76
2023/05/12 02:57:42;;;;;;;14.70;12.90;;;11.00;99.90;;;;;;5007240;28;20947;-76
2023/05/12 03:00:08;;;;;;;14.10;12.40;;;11.10;99.90;;;;;;4985495;28;20743;-76
2023/05/12 03:02:35;;;;;;;16.73;13.87;;;11.00;99.90;;;;;;5010245;28;20607;-76
2023/05/12 03:05:02;;;;;;;17.20;14.33;;;11.10;99.90;;;;;;5011837;28;20218;-75
2023/05/12 03:07:27;;;;;;;22.90;13.87;;;11.10;99.90;;;;;;5003749;28;20449;-75
2023/05/12 03:09:53;;;;;;;15.17;13.53;;;11.10;99.90;;;;;;4990178;28;20449;-76
2023/05/12 03:12:18;;;;;;;20.97;16.17;;;11.10;99.90;;;;;;5009691;28;20206;-76
2023/05/12 03:14:44;;;;;;;18.50;14.40;;;11.00;99.90;;;;;;5004630;28;20202;-74
2023/05/12 03:17:09;;;;;;;15.27;13.67;;;11.00;99.90;;;;;;5002898;28;20196;-75
2023/05/12 03:19:36;;;;;;;16.40;13.60;;;11.00;99.90;;;;;;5003995;28;20207;-76
2023/05/12 03:22:08;;;;;;;17.67;14.90;;;11.00;99.90;;;;;;5011358;28;20285;-73
2023/05/12 03:24:34;;;;;;;19.50;14.87;;;11.10;99.90;;;;;;4994176;28;20953;-76
2023/05/12 03:26:59;;;;;;;15.80;13.23;;;11.10;99.90;;;;;;5011063;28;20788;-75
2023/05/12 03:29:25;;;;;;;15.10;12.87;;;11.20;99.90;;;;;;5007916;28;20540;-73
2023/05/12 03:31:51;;;;;;;18.87;14.20;;;11.20;99.90;;;;;;5003292;28;20265;-74
2023/05/12 03:34:17;;;;;;;18.03;13.67;;;11.10;99.90;;;;;;5010365;28;20348;-73
2023/05/12 03:36:45;;;;;;;16.10;12.50;;;11.10;99.90;;;;;;5003870;28;20457;-70
2023/05/12 03:39:11;;;;;;;15.20;12.00;;;11.10;99.90;;;;;;5009435;28;20217;-73
2023/05/12 03:41:37;;;;;;;12.80;11.40;;;11.20;99.90;;;;;;5010150;28;20973;-73
2023/05/12 03:44:04;;;;;;;14.93;12.20;;;11.10;99.90;;;;;;5004824;28;20188;-70
2023/05/12 03:46:30;;;;;;;15.30;12.20;;;11.10;99.90;;;;;;5000539;28;20520;-73
2023/05/12 03:48:56;;;;;;;15.77;12.37;;;11.10;99.90;;;;;;5005231;28;20528;-73
2023/05/12 03:51:25;;;;;;;13.03;11.63;;;11.10;99.90;;;;;;5003037;28;20539;-73
2023/05/12 03:53:51;;;;;;;16.03;12.27;;;11.20;99.90;;;;;;5005050;28;20881;-73
2023/05/12 03:56:17;;;;;;;13.57;11.80;;;11.20;99.90;;;;;;4993466;28;20434;-73
2023/05/12 03:58:42;;;;;;;14.50;12.17;;;11.20;99.90;;;;;;4989631;28;20508;-70
2023/05/12 04:01:08;;;;;;;16.20;12.90;;;11.20;99.90;;;;;;5009321;28;20465;-72
2023/05/12 04:03:33;;;;;;;14.43;12.90;;;11.10;99.90;;;;;;4998846;28;20187;-73
2023/05/12 04:06:01;;;;;;;19.50;12.93;;;11.10;99.90;;;;;;4999970;28;20191;-72
2023/05/12 04:08:27;;;;;;;15.03;13.10;;;11.00;99.90;;;;;;5007731;28;20190;-73
2023/05/12 04:10:57;;;;;;;15.70;12.23;;;11.00;99.90;;;;;;5009971;28;20496;-73
2023/05/12 04:13:27;;;;;;;12.90;11.60;;;11.00;99.90;;;;;;5006117;28;20445;-72
2023/05/12 04:15:59;;;;;;;18.20;13.80;;;11.10;99.90;;;;;;5009676;28;20441;-72
2023/05/12 04:18:26;;;;;;;15.80;13.33;;;11.10;99.90;;;;;;5009526;28;20464;-72
2023/05/12 04:20:53;;;;;;;17.90;13.37;;;11.10;99.90;;;;;;5010175;28;20496;-71
2023/05/12 04:23:18;;;;;;;18.90;14.03;;;11.20;99.90;;;;;;4990752;28;20449;-73
2023/05/12 04:25:44;;;;;;;17.27;12.90;;;11.10;99.90;;;;;;5011368;28;20434;-73
2023/05/12 04:28:09;;;;;;;14.80;12.50;;;11.10;99.90;;;;;;5007246;28;20320;-73
2023/05/12 04:30:37;;;;;;;20.53;14.60;;;11.20;99.90;;;;;;5006504;28;23518;-73
2023/05/12 04:33:07;;;;;;;19.57;13.20;;;11.20;99.90;;;;;;5004380;28;20277;-72
2023/05/12 04:35:32;;;;;;;15.07;12.27;;;11.10;99.90;;;;;;5001694;28;20941;-71
2023/05/12 04:38:00;;;;;;;19.73;13.10;;;11.10;99.90;;;;;;5009318;28;20442;-73
2023/05/12 04:40:26;;;;;;;18.60;13.83;;;11.10;99.90;;;;;;5009672;28;20316;-73
2023/05/12 04:42:51;;;;;;;19.80;13.80;;;11.10;99.90;;;;;;5008439;28;20556;-72
2023/05/12 04:45:17;;;;;;;18.10;14.17;;;11.10;99.90;;;;;;5010701;28;20430;-72
2023/05/12 04:47:45;;;;;;;16.00;12.87;;;11.20;99.90;;;;;;5001730;28;20210;-74
2023/05/12 04:50:11;;;;;;;16.67;13.67;;;11.30;99.90;;;;;;5009929;28;20201;-75
2023/05/12 04:52:37;;;;;;;21.83;15.57;;;11.20;99.90;;;;;;5010200;28;20479;-75
2023/05/12 04:55:06;;;;;;;16.37;13.00;;;11.40;99.90;;;;;;5016587;28;20312;-74
2023/05/12 04:57:32;;;;;;;14.27;12.63;;;11.40;99.90;;;;;;5002109;28;20497;-73
2023/05/12 04:59:58;;;;;;;12.80;11.40;;;11.50;99.90;;;;;;5009384;28;20844;-73
2023/05/12 05:02:24;;;;;;;14.50;11.10;;;11.50;99.90;;;;;;5007052;28;20213;-72
2023/05/12 05:04:49;;;;;;;16.40;13.10;;;11.50;99.90;;;;;;5008372;28;20449;-72
2023/05/12 05:07:15;;;;;;;14.40;11.33;;;11.60;99.90;;;;;;5001975;28;20496;-72
2023/05/12 05:09:41;;;;;;;15.10;12.53;;;11.60;99.90;;;;;;5009352;28;20190;-72
2023/05/12 05:12:07;;;;;;;15.30;12.70;;;11.60;99.90;;;;;;5008748;28;20211;-73
2023/05/12 05:14:33;;;;;;;19.40;13.00;;;11.60;99.90;;;;;;4999664;28;20277;-75
2023/05/12 05:16:58;;;;;;;12.87;11.33;;;11.60;99.90;;;;;;5008926;28;21021;-73
2023/05/12 05:19:25;;;;;;;13.53;11.57;;;11.60;99.90;;;;;;5000062;28;20215;-73
2023/05/12 05:21:50;;;;;;;15.03;11.90;;;11.60;99.90;;;;;;5007593;28;20461;-73
2023/05/12 05:24:16;;;;;;;16.03;13.20;;;11.60;99.90;;;;;;5009473;28;20468;-73
2023/05/12 05:26:41;;;;;;;15.20;12.77;;;11.60;99.90;;;;;;5000955;28;20186;-73
2023/05/12 05:29:07;;;;;;;13.60;11.30;;;11.60;99.90;;;;;;4997289;28;20555;-73
2023/05/12 05:31:33;;;;;;;12.83;11.33;;;11.70;99.90;;;;;;4999875;28;20301;-73
2023/05/12 05:34:01;;;;;;;13.60;10.50;;;11.70;99.90;;;;;;5008934;28;20194;-74
2023/05/12 05:36:27;;;;;;;14.03;11.30;;;11.70;99.90;;;;;;5002757;28;20270;-72
2023/05/12 05:38:53;;;;;;;13.00;11.63;;;11.80;99.90;;;;;;5009966;28;21028;-72
2023/05/12 05:41:22;;;;;;;13.10;11.70;;;11.80;99.90;;;;;;5008343;28;20545;-73
2023/05/12 05:43:48;;;;;;;13.50;9.90;;;11.90;99.90;;;;;;5007574;28;20183;-73
2023/05/12 05:46:13;;;;;;;11.23;10.10;;;11.90;99.90;;;;;;5001937;28;20492;-72
2023/05/12 05:48:42;;;;;;;13.03;9.80;;;12.00;99.90;;;;;;5007797;28;20186;-73
2023/05/12 05:51:10;;;;;;;14.90;9.87;;;12.00;99.90;;;;;;5002447;28;20215;-74
2023/05/12 05:53:35;;;;;;;12.33;10.63;;;12.00;99.90;;;;;;5005581;28;20445;-74
2023/05/12 05:56:01;;;;;;;13.23;10.23;;;12.10;99.90;;;;;;5007987;28;20863;-72
2023/05/12 05:58:27;;;;;;;10.67;9.50;;;12.10;99.90;;;;;;4987410;28;20705;-73
2023/05/12 06:00:52;;;;;;;12.07;10.63;;;12.10;99.90;;;;;;5007616;28;20237;-72
2023/05/12 06:03:22;;;;;;;10.90;8.97;;;12.10;99.90;;;;;;5000483;28;20265;-74
2023/05/12 06:05:48;;;;;;;14.10;9.40;;;12.20;99.90;;;;;;5001364;28;20201;-73
2023/05/12 06:08:13;;;;;;;11.30;9.53;;;12.20;99.90;;;;;;5008482;28;20437;-72
2023/05/12 06:10:39;;;;;;;10.40;9.40;;;12.20;99.90;;;;;;5005391;28;20545;-72
2023/05/12 06:13:05;;;;;;;12.47;10.50;;;12.10;99.90;;;;;;4985186;28;20191;-73
2023/05/12 06:15:31;;;;;;;10.60;9.47;;;12.20;99.90;;;;;;5007666;28;20571;-72
2023/05/12 06:17:56;;;;;;;10.43;8.90;;;12.10;99.90;;;;;;5009053;28;20182;-73
2023/05/12 06:20:22;;;;;;;11.47;9.97;;;12.10;99.90;;;;;;5008197;28;20621;-73
2023/05/12 06:22:48;;;;;;;12.63;10.67;;;12.20;99.90;;;;;;5004456;28;20219;-80
2023/05/12 06:25:13;;;;;;;13.10;10.23;;;12.10;99.90;;;;;;5009438;28;20222;-73
2023/05/12 06:27:39;;;;;;;9.80;8.80;;;12.10;99.90;;;;;;5007238;28;20946;-74
2023/05/12 06:30:05;;;;;;;10.73;9.43;;;12.20;99.90;;;;;;5007060;28;20612;-73
2023/05/12 06:32:31;;;;;;;14.17;9.23;;;12.20;99.90;;;;;;4992760;28;20238;-72
2023/05/12 06:34:56;;;;;;;11.67;10.40;;;12.30;99.90;;;;;;5008997;28;20484;-72
2023/05/12 06:37:22;;;;;;;11.20;9.70;;;12.40;99.90;;;;;;5004785;28;20674;-72
2023/05/12 06:39:47;;;;;;;10.80;9.70;;;12.40;99.90;;;;;;5009577;28;20202;-71
2023/05/12 06:42:13;;;;;;;14.80;10.70;;;12.50;99.90;;;;;;5003677;28;20294;-71
2023/05/12 06:44:38;;;;;;;11.13;10.10;;;12.50;99.90;;;;;;5007896;28;20192;-75
2023/05/12 06:47:04;;;;;;;17.10;13.17;;;12.70;99.90;;;;;;5019562;28;20183;-75
2023/05/12 06:49:30;;;;;;;13.17;11.10;;;12.80;99.90;;;;;;5014001;28;20293;-73
2023/05/12 06:51:55;;;;;;;10.37;9.27;;;12.80;99.90;;;;;;5009028;28;20217;-73
2023/05/12 06:54:21;;;;;;;11.07;9.97;;;12.90;99.90;;;;;;5007141;28;20222;-73
2023/05/12 06:56:46;;;;;;;11.10;9.87;;;13.00;99.90;;;;;;5004096;28;20262;-72
2023/05/12 06:59:15;;;;;;;11.80;9.47;;;13.10;99.90;;;;;;5005010;28;20233;-71
2023/05/12 07:01:41;;;;;;;12.37;10.70;;;13.20;99.90;;;;;;5006384;28;20238;-73
2023/05/12 07:04:07;;;;;;;14.53;9.77;;;13.20;99.90;;;;;;5009290;28;20475;-73
2023/05/12 07:06:33;;;;;;;10.73;9.63;;;13.20;99.90;;;;;;5014893;28;20445;-72
2023/05/12 07:08:59;;;;;;;12.33;9.93;;;13.20;99.90;;;;;;5010339;28;20601;-74
2023/05/12 07:11:24;;;;;;;11.30;8.90;;;13.30;99.90;;;;;;5017316;28;20519;-74
2023/05/12 07:13:52;;;;;;;12.57;9.17;;;13.40;99.90;;;;;;5008996;28;20984;-73
2023/05/12 07:16:18;;;;;;;9.53;8.47;;;13.50;99.90;;;;;;5009251;28;20666;-73
2023/05/12 07:18:44;;;;;;;14.20;8.93;;;13.60;99.90;;;;;;5011902;28;20496;-73
2023/05/12 07:21:13;;;;;;;9.50;8.53;;;13.80;99.90;;;;;;5015081;28;20734;-74
2023/05/12 07:23:39;;;;;;;10.07;8.67;;;13.90;99.90;;;;;;5008795;28;20682;-73
2023/05/12 07:26:06;;;;;;;9.63;8.63;;;13.80;99.90;;;;;;4999060;28;20940;-75
2023/05/12 07:28:35;;;;;;;12.30;8.70;;;13.90;99.90;;;;;;5009292;28;20199;-72
2023/05/12 07:31:01;;;;;;;9.50;8.50;;;14.00;99.90;;;;;;5010406;28;20485;-73
2023/05/12 07:33:27;;;;;;;9.37;8.03;;;14.10;99.90;;;;;;5002830;28;20772;-74
2023/05/12 07:35:52;;;;;;;12.33;8.20;;;14.20;99.90;;;;;;5015084;28;20441;-73
2023/05/12 07:38:18;;;;;;;12.00;9.00;;;14.30;99.90;;;;;;5014151;28;20190;-73
2023/05/12 07:40:44;;;;;;;6.37;5.77;;;14.50;99.90;;;;;;5029178;28;20194;-75
2023/05/12 07:43:10;;;;;;;6.93;6.33;;;14.70;99.90;;;;;;4987719;28;20266;-73
2023/05/12 07:45:36;;;;;;;6.43;5.63;;;14.80;99.90;;;;;;5003088;28;20291;-73
2023/05/12 07:48:02;;;;;;;5.73;5.30;;;14.80;99.90;;;;;;5019945;28;20501;-74
2023/05/12 07:50:27;;;;;;;5.63;5.13;;;14.90;99.90;;;;;;5012405;28;20193;-73
2023/05/12 07:52:53;;;;;;;7.47;6.23;;;14.90;99.90;;;;;;5011774;28;20433;-73
2023/05/12 07:55:20;;;;;;;5.93;5.33;;;14.80;99.90;;;;;;5012700;28;20269;-74
2023/05/12 07:57:46;;;;;;;5.97;5.47;;;14.90;99.90;;;;;;5011739;28;20186;-74
2023/05/12 08:00:12;;;;;;;4.90;4.47;;;14.80;99.90;;;;;;5011881;28;20465;-72
2023/05/12 08:02:38;;;;;;;7.37;4.93;;;14.90;99.90;;;;;;5011009;28;20202;-73
2023/05/12 08:05:05;;;;;;;5.37;4.97;;;14.90;99.90;;;;;;5012177;28;20409;-74
2023/05/12 08:07:30;;;;;;;5.13;4.70;;;14.90;99.90;;;;;;5019436;28;21262;-74
2023/05/12 08:09:56;;;;;;;3.87;3.57;;;15.00;99.90;;;;;;5009883;28;20440;-73
2023/05/12 08:12:21;;;;;;;4.40;4.00;;;15.00;99.90;;;;;;4999797;28;20246;-73
2023/05/12 08:14:50;;;;;;;4.90;4.50;;;15.10;99.90;;;;;;5003749;28;20270;-73
2023/05/12 08:17:15;;;;;;;4.37;4.07;;;15.30;99.90;;;;;;5018839;28;20190;-75
2023/05/12 08:19:41;;;;;;;5.70;5.30;;;15.60;99.90;;;;;;5017726;28;20523;-73
2023/05/12 08:22:09;;;;;;;2.77;2.57;;;15.80;99.90;;;;;;5010589;28;20218;-71
2023/05/12 08:24:35;;;;;;;3.83;3.30;;;16.20;99.90;;;;;;5011124;28;20214;-72
2023/05/12 08:27:00;;;;;;;3.40;3.30;;;16.40;99.90;;;;;;5011148;28;20421;-71
2023/05/12 08:29:29;;;;;;;3.67;3.43;;;16.90;99.90;;;;;;5010973;28;20644;-72
2023/05/12 08:31:55;;;;;;;3.43;3.13;;;17.50;99.90;;;;;;5010601;28;20226;-72
2023/05/12 08:34:20;;;;;;;3.23;3.00;;;17.80;99.90;;;;;;5011430;28;20418;-71
2023/05/12 08:36:50;;;;;;;3.03;2.83;;;18.10;99.90;;;;;;5016484;28;20221;-72
2023/05/12 08:39:16;;;;;;;3.37;3.07;;;18.50;99.90;;;;;;5010699;28;20301;-72
2023/05/12 08:42:01;;;;;;;3.30;3.10;;;19.00;99.90;;;;;;4999304;28;20541;-72
2023/05/12 08:44:27;;;;;;;4.00;3.70;;;19.00;99.90;;;;;;4999217;28;20617;-72
2023/05/12 08:46:56;;;;;;;3.87;3.50;;;18.80;99.90;;;;;;5000443;28;20436;-70
2023/05/12 08:49:23;;;;;;;2.80;2.60;;;18.40;99.90;;;;;;5013547;28;20771;-72
2023/05/12 08:51:51;;;;;;;2.83;2.40;;;18.20;99.90;;;;;;5010179;28;20450;-71
2023/05/12 08:54:19;;;;;;;2.40;2.30;;;17.90;99.90;;;;;;5001794;28;20418;-71
2023/05/12 08:56:45;;;;;;;2.30;2.10;;;17.80;99.90;;;;;;5002558;28;20425;-72
2023/05/12 08:59:12;;;;;;;2.80;2.70;;;17.40;99.90;;;;;;5003070;28;20918;-69
2023/05/12 09:01:41;;;;;;;3.03;2.70;;;17.20;99.90;;;;;;4994798;28;20978;-72
2023/05/12 09:04:07;;;;;;;2.43;2.23;;;16.90;99.90;;;;;;5015451;28;20421;-74
2023/05/12 09:06:34;;;;;;;2.57;2.47;;;16.90;99.90;;;;;;5008331;28;20413;-74
2023/05/12 09:08:59;;;;;;;2.90;2.70;;;17.00;99.90;;;;;;5009395;28;20555;-74
2023/05/12 09:11:25;;;;;;;3.83;3.53;;;16.90;99.90;;;;;;5006519;28;20464;-74
2023/05/12 09:14:03;;;;;;;3.70;3.40;;;16.80;99.90;;;;;;5014183;28;20189;-71
2023/05/12 09:16:31;;;;;;;3.80;3.50;;;16.80;99.90;;;;;;5012244;28;20690;-74
2023/05/12 09:18:59;;;;;;;2.00;1.90;;;17.00;99.90;;;;;;5009763;28;20808;-75
2023/05/12 09:21:26;;;;;;;2.90;2.70;;;17.10;99.90;;;;;;5009072;28;20463;-74
2023/05/12 09:24:07;;;;;;;3.27;3.07;;;17.10;99.90;;;;;;4979943;28;20418;-72
2023/05/12 09:26:50;;;;;;;2.70;2.60;;;17.20;99.90;;;;;;5004547;28;20437;-75
2023/05/12 09:29:16;;;;;;;2.60;2.40;;;17.10;99.90;;;;;;5005211;28;20421;-74
2023/05/12 09:31:52;;;;;;;3.23;3.03;;;17.20;99.90;;;;;;5009070;28;20465;-74
2023/05/12 09:34:25;;;;;;;3.47;3.17;;;17.20;99.90;;;;;;5008392;28;20185;-73
2023/05/12 09:36:58;;;;;;;3.10;3.00;;;16.90;99.90;;;;;;5008230;28;20951;-77
2023/05/12 09:39:24;;;;;;;3.30;3.00;;;16.80;99.90;;;;;;4992057;28;21056;-76
2023/05/12 09:41:53;;;;;;;3.50;2.63;;;16.60;99.90;;;;;;5000709;28;20471;-76
2023/05/12 09:44:18;;;;;;;1.97;1.87;;;16.50;99.90;;;;;;5006991;28;20438;-78
2023/05/12 09:46:45;;;;;;;2.77;2.57;;;16.50;99.90;;;;;;5002513;28;20410;-76
2023/05/12 09:49:11;;;;;;;5.67;5.00;;;16.60;99.90;;;;;;5007859;28;20618;-76
2023/05/12 09:51:36;;;;;;;2.50;2.40;;;16.60;99.90;;;;;;5005030;28;20449;-75
2023/05/12 09:54:02;;;;;;;4.40;3.10;;;16.80;99.90;;;;;;5007882;28;20186;-76
2023/05/12 09:56:31;;;;;;;2.53;2.37;;;16.80;99.90;;;;;;5007651;28;20174;-77
2023/05/12 09:58:57;;;;;;;2.80;2.57;;;16.90;99.90;;;;;;5008465;28;20453;-75
2023/05/12 10:01:24;;;;;;;2.33;2.23;;;16.90;99.90;;;;;;5001613;28;20446;-76
2023/05/12 10:03:56;;;;;;;2.10;1.97;;;17.20;99.90;;;;;;5003542;28;20863;-76
2023/05/12 10:06:30;;;;;;;2.40;2.13;;;17.60;99.90;;;;;;5000496;28;21118;-73
2023/05/12 10:09:20;;;;;;;2.20;2.10;;;18.00;99.90;;;;;;5005589;28;20421;-77
2023/05/12 10:11:46;;;;;;;2.20;2.10;;;18.30;99.90;;;;;;4992791;28;20460;-74
2023/05/12 10:14:13;;;;;;;2.83;2.63;;;18.10;99.90;;;;;;5006543;28;20481;-70
2023/05/12 10:16:40;;;;;;;2.40;2.20;;;17.90;99.90;;;;;;4988385;28;20429;-75
2023/05/12 10:19:05;;;;;;;2.27;2.10;;;17.60;99.90;;;;;;4996951;28;21037;-74
2023/05/12 10:21:31;;;;;;;1.87;1.77;;;17.50;99.90;;;;;;5004077;28;20429;-71
2023/05/12 10:23:59;;;;;;;3.67;1.40;;;17.30;99.90;;;;;;4997777;28;20199;-74
2023/05/12 10:26:26;;;;;;;8.13;2.53;;;17.20;99.90;;;;;;5004822;28;20434;-72
2023/05/12 10:28:52;;;;;;;5.27;2.83;;;16.80;99.90;;;;;;5010883;28;20441;-71
2023/05/12 10:31:21;;;;;;;2.13;2.03;;;16.60;99.90;;;;;;5012608;28;21092;-75
2023/05/12 10:34:00;;;;;;;2.17;2.07;;;16.60;99.90;;;;;;5011413;28;20488;-76
2023/05/12 10:36:26;;;;;;;2.47;2.37;;;16.40;99.90;;;;;;5010884;28;20437;-74
2023/05/12 10:38:53;;;;;;;2.23;2.13;;;16.40;99.90;;;;;;5011108;28;20534;-73
2023/05/12 10:41:29;;;;;;;2.23;2.13;;;16.50;99.90;;;;;;5009817;28;20690;-74
2023/05/12 10:43:55;;;;;;;2.70;2.60;;;16.70;99.90;;;;;;5002676;28;20460;-74
2023/05/12 10:46:21;;;;;;;2.70;2.60;;;16.90;99.90;;;;;;5011774;28;20409;-74
2023/05/12 10:48:56;;;;;;;5.07;1.93;;;17.10;99.90;;;;;;5006172;28;20177;-73
2023/05/12 10:51:25;;;;;;;2.70;2.50;;;17.20;99.90;;;;;;5006106;28;20524;-71
2023/05/12 10:53:52;;;;;;;4.43;3.50;;;17.30;99.90;;;;;;5004466;28;20445;-75
2023/05/12 10:56:23;;;;;;;3.97;3.70;;;17.20;99.90;;;;;;5011588;28;20418;-74
2023/05/12 10:59:11;;;;;;;3.87;3.57;;;17.00;99.90;;;;;;5003436;28;20481;-74
2023/05/12 11:01:38;;;;;;;3.80;3.60;;;16.90;99.90;;;;;;5014140;28;20445;-74
2023/05/12 11:04:15;;;;;;;2.93;2.70;;;16.70;99.90;;;;;;5010863;28;20426;-73
2023/05/12 11:06:42;;;;;;;2.87;2.67;;;16.70;99.90;;;;;;5011825;28;20440;-74
2023/05/12 11:09:10;;;;;;;2.67;2.57;;;16.70;99.90;;;;;;5004817;28;20418;-74
2023/05/12 11:11:35;;;;;;;2.40;2.30;;;16.70;99.90;;;;;;4990035;28;20468;-75
2023/05/12 11:14:01;;;;;;;3.60;3.30;;;16.60;99.90;;;;;;5012022;28;20441;-74
2023/05/12 11:16:27;;;;;;;2.63;2.53;;;16.40;99.90;;;;;;5003397;28;20183;-74
2023/05/12 11:19:05;;;;;;;3.17;2.97;;;16.20;99.90;;;;;;4987370;28;20775;-73
2023/05/12 11:21:31;;;;;;;2.97;2.70;;;16.20;99.90;;;;;;5008574;28;20206;-76
2023/05/12 11:23:58;;;;;;;2.23;2.13;;;16.20;99.90;;;;;;5005706;28;20425;-73
2023/05/12 11:26:24;;;;;;;4.00;2.23;;;16.20;99.90;;;;;;5011372;28;20422;-74
2023/05/12 11:28:50;;;;;;;2.80;1.80;;;16.20;99.90;;;;;;5003244;28;20436;-74
2023/05/12 11:31:21;;;;;;;4.00;2.07;;;16.10;99.90;;;;;;5004144;28;20218;-74
2023/05/12 11:33:47;;;;;;;1.83;1.73;;;16.20;99.90;;;;;;5004978;28;20183;-73
2023/05/12 11:36:13;;;;;;;4.47;2.80;;;16.10;99.90;;;;;;5011893;28;20417;-71
2023/05/12 11:38:47;;;;;;;2.80;2.53;;;16.10;99.90;;;;;;5004622;28;20523;-74
2023/05/12 11:41:12;;;;;;;2.87;2.77;;;15.90;99.90;;;;;;5014810;28;20521;-72
2023/05/12 11:43:38;;;;;;;3.00;2.80;;;15.90;99.90;;;;;;5007977;28;20433;-74
2023/05/12 11:46:03;;;;;;;4.80;3.40;;;15.90;99.90;;;;;;5006322;28;20186;-75
2023/05/12 11:48:36;;;;;;;3.57;3.27;;;15.90;99.90;;;;;;5002250;28;20261;-74
2023/05/12 11:51:04;;;;;;;3.40;3.20;;;15.90;99.90;;;;;;5011788;28;20207;-74
2023/05/12 11:53:30;;;;;;;3.70;3.40;;;15.60;99.90;;;;;;5009921;28;20469;-75
2023/05/12 11:55:56;;;;;;;3.87;3.50;;;15.40;99.90;;;;;;5011026;28;21008;-73
2023/05/12 11:58:29;;;;;;;3.97;3.60;;;15.40;99.90;;;;;;4991007;28;20265;-73
2023/05/12 12:00:56;;;;;;;3.33;3.13;;;15.40;99.90;;;;;;5002670;28;20445;-72
2023/05/12 12:03:24;;;;;;;2.37;2.27;;;15.40;99.90;;;;;;5008202;28;20413;-74
2023/05/12 12:06:01;;;;;;;2.37;2.27;;;15.40;99.90;;;;;;5006705;28;20517;-74
2023/05/12 12:08:27;;;;;;;1.40;1.30;;;15.40;99.90;;;;;;4997833;28;20812;-74
2023/05/12 12:10:52;;;;;;;1.50;1.47;;;15.50;99.90;;;;;;5003000;28;20465;-73
2023/05/12 12:13:24;;;;;;;2.30;2.17;;;15.50;99.90;;;;;;5013521;28;20182;-74
2023/05/12 12:15:51;;;;;;;2.47;2.37;;;15.60;99.90;;;;;;4997393;28;20191;-74
2023/05/12 12:18:17;;;;;;;2.77;2.60;;;15.70;99.90;;;;;;5011413;28;20479;-74
2023/05/12 12:20:43;;;;;;;3.00;2.60;;;15.80;99.90;;;;;;5006572;28;20436;-73
2023/05/12 12:23:09;;;;;;;3.50;2.90;;;15.90;99.90;;;;;;5015747;28;20940;-74
2023/05/12 12:25:34;;;;;;;2.50;2.33;;;16.00;99.90;;;;;;5011251;28;20421;-73
2023/05/12 12:28:00;;;;;;;2.80;2.60;;;16.10;99.90;;;;;;5002454;28;20217;-74
2023/05/12 12:30:28;;;;;;;2.60;2.40;;;16.10;99.90;;;;;;5026930;28;20217;-73
2023/05/12 12:32:54;;;;;;;2.97;2.73;;;16.20;99.90;;;;;;5010241;28;20209;-73
2023/05/12 12:35:19;;;;;;;3.00;2.70;;;16.40;99.90;;;;;;5002944;28;20417;-74
2023/05/12 12:37:50;;;;;;;2.80;2.60;;;16.60;99.90;;;;;;5000226;28;20808;-73
2023/05/12 12:40:17;;;;;;;2.70;2.60;;;16.70;99.90;;;;;;4999601;28;20593;-74
2023/05/12 12:42:42;;;;;;;2.93;1.90;;;17.00;99.90;;;;;;5009367;28;20488;-75
2023/05/12 12:45:08;;;;;;;2.30;2.20;;;17.10;99.90;;;;;;5004692;28;20415;-74
2023/05/12 12:47:34;;;;;;;3.27;2.43;;;17.30;99.90;;;;;;5008401;28;20171;-73
2023/05/12 12:50:00;;;;;;;2.50;2.30;;;17.40;99.90;;;;;;5010902;28;20414;-73
2023/05/12 12:52:26;;;;;;;3.30;3.10;;;17.50;99.90;;;;;;5009730;28;20471;-73
2023/05/12 12:54:51;;;;;;;3.87;3.67;;;17.30;99.90;;;;;;5002523;28;20550;-71
2023/05/12 12:57:18;;;;;;;2.70;2.60;;;17.50;99.90;;;;;;5002983;28;20186;-73
2023/05/12 12:59:47;;;;;;;2.80;2.00;;;17.60;99.90;;;;;;5007197;28;20195;-74
2023/05/12 13:02:13;;;;;;;1.80;1.70;;;17.50;99.90;;;;;;4998202;28;20431;-73
2023/05/12 13:04:38;;;;;;;3.50;2.80;;;17.40;99.90;;;;;;5009155;28;20838;-73
2023/05/12 13:07:06;;;;;;;5.30;4.80;;;17.30;99.90;;;;;;5003234;28;20202;-75
2023/05/12 13:09:31;;;;;;;5.83;5.23;;;17.20;99.90;;;;;;5010158;28;20206;-71
2023/05/12 13:11:58;;;;;;;5.67;5.13;;;16.90;99.90;;;;;;5009564;28;20993;-75
2023/05/12 13:14:27;;;;;;;4.67;4.37;;;16.50;99.90;;;;;;5001655;28;20180;-73
2023/05/12 13:16:52;;;;;;;5.37;4.87;;;16.30;99.90;;;;;;4994350;28;20504;-73
2023/05/12 13:19:18;;;;;;;5.90;5.50;;;16.10;99.90;;;;;;5002588;28;21082;-74
2023/05/12 13:21:46;;;;;;;5.87;5.37;;;16.10;99.90;;;;;;5000282;28;20208;-73
2023/05/12 13:24:12;;;;;;;6.67;6.17;;;16.00;99.90;;;;;;5001488;28;20184;-71
2023/05/12 13:26:37;;;;;;;5.83;5.33;;;15.90;99.90;;;;;;4991875;28;20448;-74
2023/05/12 13:29:03;;;;;;;8.60;6.50;;;15.90;99.90;;;;;;5002041;28;20535;-73
2023/05/12 13:31:30;;;;;;;7.73;7.13;;;15.70;99.90;;;;;;5002522;28;20755;-72
2023/05/12 13:33:55;;;;;;;7.10;6.60;;;15.60;99.90;;;;;;4996820;28;20498;-73
2023/05/12 13:36:21;;;;;;;7.73;7.13;;;15.50;99.90;;;;;;4991249;28;20184;-73
2023/05/12 13:38:46;;;;;;;7.60;6.80;;;15.40;99.90;;;;;;4998309;28;20199;-73
2023/05/12 13:41:12;;;;;;;7.07;6.57;;;15.40;99.90;;;;;;5001990;28;20205;-71
2023/05/12 13:43:37;;;;;;;6.73;6.20;;;15.40;99.90;;;;;;5007538;28;20183;-74
2023/05/12 13:46:03;;;;;;;7.10;6.50;;;15.50;99.90;;;;;;5004100;28;20203;-74
2023/05/12 13:48:28;;;;;;;7.17;6.47;;;15.60;99.90;;;;;;5004851;28;20185;-74
2023/05/12 13:50:55;;;;;;;9.43;7.40;;;15.70;99.90;;;;;;5006571;28;20581;-73
2023/05/12 13:53:23;;;;;;;7.40;6.90;;;15.80;99.90;;;;;;4989643;28;20198;-73
2023/05/12 13:55:49;;;;;;;7.47;6.87;;;15.90;99.90;;;;;;5007474;28;20524;-74
2023/05/12 13:58:14;;;;;;;7.40;6.67;;;16.00;99.90;;;;;;5006694;28;20518;-73
2023/05/12 14:00:43;;;;;;;8.50;6.90;;;16.20;99.90;;;;;;5006010;28;20222;-75
2023/05/12 14:03:08;;;;;;;11.53;7.90;;;16.10;99.90;;;;;;5008500;28;20181;-74
2023/05/12 14:05:34;;;;;;;8.70;7.77;;;16.00;99.90;;;;;;5009175;28;20413;-74
2023/05/12 14:08:02;;;;;;;7.70;7.10;;;16.00;99.90;;;;;;5004250;28;20183;-73